Time;durP1;ratioP1;P1;durP2;ratioP2;P2;SDS_P1;SDS_P2;PMS_P1;PMS_P2;Temp;Humidity;BMP_temperature;BMP_pressure;BME280_temperature;BME280_humidity;BME280_pressure;Samples;Min_cycle;Max_cycle;Signal;HPM_P1;HPM_P2
2022/06/18 00:01:33;;;;;;;3.08;2.22;;;;;;;;;;5014977;28;20519;-68
2022/06/18 00:04:08;;;;;;;3.65;2.78;;;;;;;;;;5015192;28;20053;-67
2022/06/18 00:07:01;;;;;;;3.35;2.50;;;;;;;;;;5015066;28;20046;-68
2022/06/18 00:09:35;;;;;;;2.15;2.00;;;;;;;;;;5014012;28;20053;-68
2022/06/18 00:14:59;;;;;;;3.05;2.15;;;;;;;;;;5014822;28;20057;-68
2022/06/18 00:17:25;;;;;;;6.78;2.00;;;;;;;;;;5014919;28;20500;-68
2022/06/18 00:19:52;;;;;;;4.30;2.00;;;;;;;;;;5014746;28;20065;-67
2022/06/18 00:22:21;;;;;;;2.28;2.03;;;;;;;;;;5014772;28;20467;-68
2022/06/18 00:24:48;;;;;;;5.50;2.10;;;;;;;;;;5013837;28;20096;-68
2022/06/18 00:27:16;;;;;;;2.92;2.53;;;;;;;;;;5033184;28;20496;-68
2022/06/18 00:29:44;;;;;;;3.10;2.35;;;;;;;;;;5034223;28;20076;-67
2022/06/18 00:32:11;;;;;;;2.70;2.30;;;;;;;;;;5034103;28;20092;-68
2022/06/18 00:34:38;;;;;;;3.70;2.15;;;;;;;;;;5034379;28;20454;-68
2022/06/18 00:37:05;;;;;;;1.95;1.75;;;;;;;;;;5034384;28;20499;-68
2022/06/18 00:39:32;;;;;;;3.75;2.13;;;;;;;;;;5034214;28;20120;-67
2022/06/18 00:42:04;;;;;;;2.38;2.17;;;;;;;;;;5034006;28;20057;-67
2022/06/18 00:44:33;;;;;;;2.78;1.83;;;;;;;;;;5017286;28;20119;-67
2022/06/18 00:47:16;;;;;;;2.40;1.80;;;;;;;;;;5033921;28;20041;-67
2022/06/18 00:49:51;;;;;;;;;;;;;;;;;;5018048;28;20050;-67
2022/06/18 00:52:27;;;;;;;3.90;1.88;;;;;;;;;;5032545;28;19921;-67
2022/06/18 00:55:24;;;;;;;1.67;1.58;;;;;;;;;;5017275;28;20492;-68
2022/06/18 00:58:18;;;;;;;2.22;1.98;;;;;;;;;;5031106;28;20049;-67
2022/06/18 01:00:46;;;;;;;2.45;2.10;;;;;;;;;;5017221;28;20496;-67
2022/06/18 01:03:28;;;;;;;2.20;2.00;;;;;;;;;;5033693;28;20069;-67
2022/06/18 01:05:57;;;;;;;2.72;2.00;;;;;;;;;;5028468;28;20049;-68
2022/06/18 01:08:25;;;;;;;3.78;2.55;;;;;;;;;;5012758;28;20104;-68
2022/06/18 01:11:00;;;;;;;3.15;2.35;;;;;;;;;;5013739;28;20464;-67
2022/06/18 01:13:33;;;;;;;2.90;2.20;;;;;;;;;;5013669;28;20468;-68
2022/06/18 01:16:00;;;;;;;2.10;1.95;;;;;;;;;;5012556;28;20050;-67
2022/06/18 01:18:28;;;;;;;3.53;2.60;;;;;;;;;;5024384;28;20095;-67
2022/06/18 01:21:05;;;;;;;2.95;2.30;;;;;;;;;;5032164;28;20053;-67
2022/06/18 01:23:40;;;;;;;3.42;2.40;;;;;;;;;;5016551;28;20045;-68
2022/06/18 01:26:07;;;;;;;2.17;1.98;;;;;;;;;;5031988;28;20111;-68
2022/06/18 01:28:33;;;;;;;2.92;1.98;;;;;;;;;;5015814;28;20053;-68
2022/06/18 01:31:00;;;;;;;2.53;2.33;;;;;;;;;;5024338;28;20061;-68
2022/06/18 01:33:27;;;;;;;3.90;2.25;;;;;;;;;;5013473;28;20065;-67
2022/06/18 01:35:54;;;;;;;2.00;1.90;;;;;;;;;;5013386;28;20053;-67
2022/06/18 01:38:24;;;;;;;3.22;1.92;;;;;;;;;;5011970;28;20572;-68
2022/06/18 01:43:52;;;;;;;2.80;2.10;;;;;;;;;;5012169;28;20496;-67
2022/06/18 01:46:19;;;;;;;4.28;2.65;;;;;;;;;;5030281;28;20050;-67
2022/06/18 01:48:46;;;;;;;3.17;2.25;;;;;;;;;;5032785;28;20466;-67
2022/06/18 01:51:15;;;;;;;2.83;2.15;;;;;;;;;;5015148;28;20463;-67
2022/06/18 01:53:49;;;;;;;3.22;2.20;;;;;;;;;;5031584;28;20470;-67
2022/06/18 01:56:37;;;;;;;3.40;2.00;;;;;;;;;;5015829;28;20107;-68
2022/06/18 01:59:10;;;;;;;2.75;1.85;;;;;;;;;;5003418;28;20050;-68
2022/06/18 02:01:38;;;;;;;2.42;1.77;;;;;;;;;;5011819;28;20053;-67
2022/06/18 02:04:05;;;;;;;3.75;2.10;;;;;;;;;;4995549;28;20053;-67
2022/06/18 02:06:35;;;;;;;2.63;1.98;;;;;;;;;;5013017;28;20050;-66
2022/06/18 02:09:04;;;;;;;4.00;1.80;;;;;;;;;;5012671;28;20069;-67
2022/06/18 02:11:31;;;;;;;5.05;1.80;;;;;;;;;;4995362;28;20049;-67
2022/06/18 02:14:01;;;;;;;2.00;1.80;;;;;;;;;;5030120;28;20049;-67
2022/06/18 02:16:29;;;;;;;2.22;1.75;;;;;;;;;;5015252;28;20107;-68
2022/06/18 02:18:59;;;;;;;2.33;2.10;;;;;;;;;;5031013;28;20056;-68
2022/06/18 02:21:26;;;;;;;4.40;2.20;;;;;;;;;;5032138;28;20523;-68
2022/06/18 02:23:53;;;;;;;3.30;1.90;;;;;;;;;;5032280;28;20473;-68
2022/06/18 02:26:21;;;;;;;3.20;2.10;;;;;;;;;;5031782;28;20053;-67
2022/06/18 02:28:50;;;;;;;2.60;2.00;;;;;;;;;;5014893;28;20095;-68
2022/06/18 02:31:17;;;;;;;1.95;1.55;;;;;;;;;;5032103;28;20049;-67
2022/06/18 02:33:47;;;;;;;1.98;1.73;;;;;;;;;;5014755;28;20099;-68
2022/06/18 02:36:19;;;;;;;2.15;1.95;;;;;;;;;;5014900;28;20049;-67
2022/06/18 02:38:47;;;;;;;2.65;1.98;;;;;;;;;;5030547;28;20057;-67
2022/06/18 02:41:14;;;;;;;1.83;1.73;;;;;;;;;;5011030;28;20058;-68
2022/06/18 02:43:42;;;;;;;1.98;1.77;;;;;;;;;;5011202;28;20053;-67
2022/06/18 02:46:08;;;;;;;3.65;1.70;;;;;;;;;;5011152;28;20046;-67
2022/06/18 02:48:36;;;;;;;4.55;2.35;;;;;;;;;;5011067;28;20100;-67
2022/06/18 02:51:03;;;;;;;1.92;1.83;;;;;;;;;;5010839;28;20096;-68
2022/06/18 02:53:30;;;;;;;4.13;1.85;;;;;;;;;;5027093;28;20050;-68
2022/06/18 02:56:00;;;;;;;4.22;2.58;;;;;;;;;;5031741;28;20052;-67
2022/06/18 02:58:36;;;;;;;3.97;3.03;;;;;;;;;;5031391;28;20498;-68
2022/06/18 03:01:06;;;;;;;2.35;2.15;;;;;;;;;;5031776;28;20053;-67
2022/06/18 03:03:38;;;;;;;4.15;2.72;;;;;;;;;;5031674;28;20053;-67
2022/06/18 03:06:06;;;;;;;3.75;2.75;;;;;;;;;;5029189;28;20063;-67
2022/06/18 03:08:34;;;;;;;4.40;2.88;;;;;;;;;;5012186;28;20046;-67
2022/06/18 03:13:46;;;;;;;3.40;2.50;;;;;;;;;;5011997;28;20050;-67
2022/06/18 03:16:14;;;;;;;3.25;2.50;;;;;;;;;;5011897;28;20049;-67
2022/06/18 03:18:42;;;;;;;3.53;3.17;;;;;;;;;;5011965;28;20060;-67
2022/06/18 03:21:26;;;;;;;3.80;2.65;;;;;;;;;;5014662;28;20050;-68
2022/06/18 03:23:53;;;;;;;2.42;2.22;;;;;;;;;;5015866;28;20131;-67
2022/06/18 03:26:20;;;;;;;3.35;3.05;;;;;;;;;;5015830;28;20108;-67
2022/06/18 03:28:47;;;;;;;3.80;2.58;;;;;;;;;;5015608;28;20096;-68
2022/06/18 03:31:13;;;;;;;4.40;2.70;;;;;;;;;;5015482;28;20555;-68
2022/06/18 03:33:41;;;;;;;3.08;2.85;;;;;;;;;;5015575;28;20141;-68
2022/06/18 03:36:11;;;;;;;3.13;2.47;;;;;;;;;;5015727;28;20054;-67
2022/06/18 03:38:38;;;;;;;3.15;2.40;;;;;;;;;;4998387;28;20046;-67
2022/06/18 03:41:08;;;;;;;3.88;2.58;;;;;;;;;;5015703;28;20050;-68
2022/06/18 03:43:35;;;;;;;2.80;2.60;;;;;;;;;;5015451;28;20129;-67
2022/06/18 03:46:08;;;;;;;3.42;2.92;;;;;;;;;;5015583;28;20057;-68
2022/06/18 03:48:35;;;;;;;2.67;2.47;;;;;;;;;;5015548;28;20050;-68
2022/06/18 03:51:02;;;;;;;5.63;2.90;;;;;;;;;;5015259;28;20053;-68
2022/06/18 03:53:28;;;;;;;2.78;2.35;;;;;;;;;;5015185;28;20050;-68
2022/06/18 03:55:55;;;;;;;3.22;2.92;;;;;;;;;;5015473;28;20050;-68
2022/06/18 03:58:22;;;;;;;3.38;2.70;;;;;;;;;;5046248;22;20052;-68
2022/06/18 04:00:50;;;;;;;4.57;2.92;;;;;;;;;;5044022;28;20106;-69
2022/06/18 04:03:16;;;;;;;4.32;2.83;;;;;;;;;;5053117;28;20449;-68
2022/06/18 04:05:43;;;;;;;4.55;2.78;;;;;;;;;;5055114;28;20102;-69
2022/06/18 04:08:14;;;;;;;3.40;2.47;;;;;;;;;;5054856;28;20487;-68
2022/06/18 04:10:41;;;;;;;2.83;2.50;;;;;;;;;;5043171;28;20492;-68
2022/06/18 04:13:08;;;;;;;4.65;2.50;;;;;;;;;;5036329;28;20053;-67
2022/06/18 04:15:35;;;;;;;3.75;2.88;;;;;;;;;;5059166;28;20037;-68
2022/06/18 04:18:02;;;;;;;3.47;2.85;;;;;;;;;;5038899;28;20515;-69
2022/06/18 04:20:34;;;;;;;5.18;3.42;;;;;;;;;;5034834;28;20397;-69
2022/06/18 04:23:01;;;;;;;8.65;2.80;;;;;;;;;;5034481;28;20054;-69
2022/06/18 04:25:28;;;;;;;5.50;2.65;;;;;;;;;;5034410;28;20116;-69
2022/06/18 04:27:57;;;;;;;5.85;2.72;;;;;;;;;;5034427;28;20056;-69
2022/06/18 04:30:27;;;;;;;3.42;2.50;;;;;;;;;;5033606;28;20057;-69
2022/06/18 04:32:54;;;;;;;3.60;2.65;;;;;;;;;;5034292;28;20057;-69
2022/06/18 04:35:21;;;;;;;3.08;2.65;;;;;;;;;;5034415;28;20056;-69
2022/06/18 04:37:48;;;;;;;4.50;2.65;;;;;;;;;;5033309;28;20042;-68
2022/06/18 04:40:17;;;;;;;3.70;3.00;;;;;;;;;;5034595;28;20137;-69
2022/06/18 04:43:06;;;;;;;3.20;2.53;;;;;;;;;;5034068;28;20084;-69
2022/06/18 04:45:33;;;;;;;3.22;2.58;;;;;;;;;;5034335;28;20053;-68
2022/06/18 04:48:00;;;;;;;4.40;2.90;;;;;;;;;;5034144;28;20421;-69
2022/06/18 04:50:30;;;;;;;3.83;2.53;;;;;;;;;;5034398;28;20057;-69
2022/06/18 04:52:57;;;;;;;5.50;2.80;;;;;;;;;;5046503;28;20455;-69
2022/06/18 04:55:24;;;;;;;3.13;2.60;;;;;;;;;;5053903;28;20515;-69
2022/06/18 04:57:50;;;;;;;3.25;2.95;;;;;;;;;;5030866;28;20512;-70
2022/06/18 05:00:18;;;;;;;6.85;2.45;;;;;;;;;;5028618;28;20042;-69
2022/06/18 05:02:44;;;;;;;5.90;2.40;;;;;;;;;;5023892;28;20496;-69
2022/06/18 05:05:13;;;;;;;3.72;2.47;;;;;;;;;;5020461;28;20061;-69
2022/06/18 05:07:40;;;;;;;2.72;2.30;;;;;;;;;;5022264;28;20546;-69
2022/06/18 05:10:07;;;;;;;2.80;2.60;;;;;;;;;;5020666;28;20061;-70
2022/06/18 05:12:34;;;;;;;3.25;2.90;;;;;;;;;;5019193;28;20567;-70
2022/06/18 05:15:00;;;;;;;5.93;3.13;;;;;;;;;;5021124;28;20062;-70
2022/06/18 05:17:29;;;;;;;3.17;2.78;;;;;;;;;;5022351;28;20115;-71
2022/06/18 05:19:56;;;;;;;7.03;2.53;;;;;;;;;;5023734;28;20144;-72
2022/06/18 05:22:24;;;;;;;4.38;2.15;;;;;;;;;;5019134;28;20424;-69
2022/06/18 05:24:50;;;;;;;3.90;2.70;;;;;;;;;;5022067;28;20053;-71
2022/06/18 05:27:29;;;;;;;7.05;2.70;;;;;;;;;;5021110;28;20054;-70
2022/06/18 05:29:55;;;;;;;3.92;2.60;;;;;;;;;;5025475;28;20049;-70
2022/06/18 05:32:22;;;;;;;4.28;2.67;;;;;;;;;;5019652;28;20048;-70
2022/06/18 05:34:49;;;;;;;9.70;3.05;;;;;;;;;;5018344;28;20104;-70
2022/06/18 05:37:26;;;;;;;3.70;2.78;;;;;;;;;;5018710;28;20054;-70
2022/06/18 05:39:52;;;;;;;3.83;3.00;;;;;;;;;;5015078;28;20046;-70
2022/06/18 05:42:19;;;;;;;2.55;2.35;;;;;;;;;;5018695;28;20057;-71
2022/06/18 05:44:45;;;;;;;2.90;2.42;;;;;;;;;;5019820;28;20432;-71
2022/06/18 05:47:16;;;;;;;3.35;2.60;;;;;;;;;;5020319;28;20061;-70
2022/06/18 05:49:43;;;;;;;3.92;2.47;;;;;;;;;;5021588;28;20046;-70
2022/06/18 05:52:10;;;;;;;5.18;2.50;;;;;;;;;;5016910;28;20569;-71
2022/06/18 05:54:37;;;;;;;3.63;2.70;;;;;;;;;;5017538;28;20049;-71
2022/06/18 05:57:04;;;;;;;2.55;2.35;;;;;;;;;;5019200;28;20065;-71
2022/06/18 05:59:31;;;;;;;3.22;2.42;;;;;;;;;;5017058;28;20496;-71
2022/06/18 06:01:58;;;;;;;3.20;2.30;;;;;;;;;;5016402;28;20055;-71
2022/06/18 06:04:26;;;;;;;5.50;2.15;;;;;;;;;;5018918;28;20508;-71
2022/06/18 06:06:52;;;;;;;2.35;2.15;;;;;;;;;;5015212;28;20496;-71
2022/06/18 06:12:11;;;;;;;3.75;2.45;;;;;;;;;;5015840;28;20068;-74
2022/06/18 06:14:38;;;;;;;2.25;2.05;;;;;;;;;;5016501;28;20054;-70
2022/06/18 06:17:05;;;;;;;2.70;2.17;;;;;;;;;;5020030;28;20056;-70
2022/06/18 06:19:32;;;;;;;2.92;2.17;;;;;;;;;;5015671;28;20420;-70
2022/06/18 06:21:59;;;;;;;2.72;2.10;;;;;;;;;;5018060;28;20150;-69
2022/06/18 06:24:25;;;;;;;4.47;2.30;;;;;;;;;;5016000;28;20049;-69
2022/06/18 06:26:52;;;;;;;6.72;2.20;;;;;;;;;;5015611;28;20608;-70
2022/06/18 06:29:18;;;;;;;3.78;2.15;;;;;;;;;;5016337;28;20046;-70
2022/06/18 06:31:45;;;;;;;2.60;1.75;;;;;;;;;;5020306;28;20428;-69
2022/06/18 06:34:12;;;;;;;3.20;2.17;;;;;;;;;;5016517;28;20083;-71
2022/06/18 06:36:38;;;;;;;3.35;2.40;;;;;;;;;;5016628;28;20531;-70
2022/06/18 06:39:05;;;;;;;2.45;2.15;;;;;;;;;;5017136;28;20123;-70
2022/06/18 06:41:32;;;;;;;3.45;2.00;;;;;;;;;;5015612;28;20094;-70
2022/06/18 06:43:59;;;;;;;2.78;2.03;;;;;;;;;;5015873;28;20508;-70
2022/06/18 06:46:29;;;;;;;2.75;2.30;;;;;;;;;;5015466;28;20061;-71
2022/06/18 06:48:58;;;;;;;2.72;2.20;;;;;;;;;;5016874;28;20100;-68
2022/06/18 06:51:26;;;;;;;5.22;2.42;;;;;;;;;;5018269;28;20081;-65
2022/06/18 06:53:53;;;;;;;2.30;2.10;;;;;;;;;;5016464;28;20042;-69
2022/06/18 06:59:08;;;;;;;5.25;2.60;;;;;;;;;;5017278;28;20440;-68
2022/06/18 07:01:34;;;;;;;2.70;2.42;;;;;;;;;;5018949;28;20060;-68
2022/06/18 07:04:02;;;;;;;3.38;2.03;;;;;;;;;;5017228;28;20046;-68
2022/06/18 07:06:29;;;;;;;5.40;2.17;;;;;;;;;;5019115;28;20041;-69
2022/06/18 07:08:56;;;;;;;2.45;2.10;;;;;;;;;;5017656;28;20097;-69
2022/06/18 07:11:23;;;;;;;3.38;2.42;;;;;;;;;;5018380;28;20053;-68
2022/06/18 07:13:49;;;;;;;4.13;1.92;;;;;;;;;;5017745;28;20050;-68
2022/06/18 07:16:16;;;;;;;4.80;2.40;;;;;;;;;;5018504;28;20107;-68
2022/06/18 07:18:43;;;;;;;4.70;2.33;;;;;;;;;;5018163;28;20489;-68
2022/06/18 07:21:15;;;;;;;3.63;1.85;;;;;;;;;;5017712;28;20053;-68
2022/06/18 07:23:42;;;;;;;3.33;2.08;;;;;;;;;;5015547;28;20046;-68
2022/06/18 07:26:10;;;;;;;4.40;2.30;;;;;;;;;;5018692;28;20042;-68
2022/06/18 07:28:40;;;;;;;11.80;3.85;;;;;;;;;;5001965;28;20080;-68
2022/06/18 07:31:06;;;;;;;2.10;2.00;;;;;;;;;;5017234;28;20066;-68
2022/06/18 07:33:33;;;;;;;4.85;2.45;;;;;;;;;;5016754;28;20136;-68
2022/06/18 07:36:00;;;;;;;3.67;2.08;;;;;;;;;;5016135;28;20487;-69
2022/06/18 07:38:27;;;;;;;2.35;2.08;;;;;;;;;;5018545;28;20049;-68
2022/06/18 07:40:54;;;;;;;3.45;2.22;;;;;;;;;;5024976;28;20045;-69
2022/06/18 07:43:30;;;;;;;2.90;2.05;;;;;;;;;;5022914;28;20107;-68
2022/06/18 07:45:56;;;;;;;2.42;1.90;;;;;;;;;;5018117;28;20496;-68
2022/06/18 07:48:23;;;;;;;2.80;2.10;;;;;;;;;;5016549;28;20096;-68
2022/06/18 07:50:50;;;;;;;2.35;1.75;;;;;;;;;;5018767;28;20046;-68
2022/06/18 07:53:18;;;;;;;4.20;2.10;;;;;;;;;;5017131;28;20508;-68
2022/06/18 07:55:45;;;;;;;4.22;1.77;;;;;;;;;;5021728;28;20107;-68
2022/06/18 07:58:11;;;;;;;2.67;2.00;;;;;;;;;;5016946;28;20053;-68
2022/06/18 08:00:39;;;;;;;3.00;1.80;;;;;;;;;;5018590;28;20045;-69
2022/06/18 08:03:07;;;;;;;3.33;2.20;;;;;;;;;;5017060;28;20050;-69
2022/06/18 08:05:34;;;;;;;2.35;2.15;;;;;;;;;;5019552;28;20128;-68
2022/06/18 08:08:01;;;;;;;4.07;2.10;;;;;;;;;;5021948;28;20054;-68
2022/06/18 08:10:50;;;;;;;4.85;1.85;;;;;;;;;;5021959;28;20468;-69
2022/06/18 08:13:16;;;;;;;1.80;1.70;;;;;;;;;;5023500;28;20061;-68
2022/06/18 08:15:48;;;;;;;3.60;2.22;;;;;;;;;;5023965;28;20064;-68
2022/06/18 08:18:15;;;;;;;2.85;2.17;;;;;;;;;;5023960;28;20049;-70
2022/06/18 08:20:55;;;;;;;1.80;1.70;;;;;;;;;;5020465;28;20047;-68
2022/06/18 08:23:22;;;;;;;1.95;1.70;;;;;;;;;;5019774;28;20057;-76
2022/06/18 08:25:49;;;;;;;3.38;1.88;;;;;;;;;;5014100;28;20124;-77
2022/06/18 08:28:16;;;;;;;3.15;1.77;;;;;;;;;;5018768;28;20056;-76
2022/06/18 08:30:42;;;;;;;3.92;1.83;;;;;;;;;;5022031;28;20128;-76
2022/06/18 08:33:09;;;;;;;3.17;1.90;;;;;;;;;;5004052;28;20119;-76
2022/06/18 08:35:37;;;;;;;4.13;1.67;;;;;;;;;;5022231;28;20069;-76
2022/06/18 08:38:06;;;;;;;2.05;1.80;;;;;;;;;;5021944;28;20136;-80
2022/06/18 08:41:09;;;;;;;2.97;1.80;;;;;;;;;;5007183;28;20099;-73
2022/06/18 08:43:54;;;;;;;3.95;1.52;;;;;;;;;;5024726;28;20057;-68
2022/06/18 08:46:30;;;;;;;1.67;1.50;;;;;;;;;;5022956;28;20057;-68
2022/06/18 08:48:57;;;;;;;3.40;1.42;;;;;;;;;;5021081;28;20128;-71
2022/06/18 08:51:35;;;;;;;2.42;1.58;;;;;;;;;;5020252;28;20049;-72
2022/06/18 08:54:20;;;;;;;6.55;2.00;;;;;;;;;;5026992;28;20056;-71
2022/06/18 08:57:00;;;;;;;1.73;1.40;;;;;;;;;;5019188;28;20095;-71
2022/06/18 08:59:37;;;;;;;3.65;1.65;;;;;;;;;;5019672;28;20073;-73
2022/06/18 09:02:22;;;;;;;1.60;1.50;;;;;;;;;;5018733;28;20092;-69
2022/06/18 09:05:16;;;;;;;3.45;1.90;;;;;;;;;;5018938;28;20128;-68
2022/06/18 09:07:52;;;;;;;1.90;1.65;;;;;;;;;;5022546;28;20057;-69
2022/06/18 09:10:30;;;;;;;3.53;1.90;;;;;;;;;;5022996;28;20076;-68
2022/06/18 09:13:15;;;;;;;3.30;1.55;;;;;;;;;;5018923;28;20050;-68
2022/06/18 09:15:45;;;;;;;2.33;1.10;;;;;;;;;;5028826;28;20115;-69
2022/06/18 09:18:17;;;;;;;1.95;1.38;;;;;;;;;;5024911;28;20064;-68
2022/06/18 09:20:53;;;;;;;3.78;1.45;;;;;;;;;;5017483;28;20041;-69
2022/06/18 09:23:27;;;;;;;1.67;1.35;;;;;;;;;;5020167;28;20054;-68
2022/06/18 09:25:56;;;;;;;2.22;1.13;;;;;;;;;;5018719;28;20050;-69
2022/06/18 09:28:27;;;;;;;1.95;1.50;;;;;;;;;;5019379;28;20083;-69
2022/06/18 09:30:59;;;;;;;2.47;1.50;;;;;;;;;;5017425;28;20045;-68
2022/06/18 09:34:07;;;;;;;2.80;1.73;;;;;;;;;;5021951;28;20049;-68
2022/06/18 09:36:37;;;;;;;3.53;1.65;;;;;;;;;;4981367;28;20126;-69
2022/06/18 09:39:10;;;;;;;3.03;1.27;;;;;;;;;;4963374;28;20094;-68
2022/06/18 09:42:01;;;;;;;2.80;1.45;;;;;;;;;;4985521;28;20144;-69
2022/06/18 09:44:51;;;;;;;2.30;1.63;;;;;;;;;;5018727;28;20464;-68
2022/06/18 09:47:36;;;;;;;3.28;1.55;;;;;;;;;;5018543;28;20050;-68
2022/06/18 09:50:12;;;;;;;5.15;1.50;;;;;;;;;;5019428;28;20500;-68
2022/06/18 09:52:39;;;;;;;2.70;1.35;;;;;;;;;;5019164;28;20412;-67
2022/06/18 09:55:09;;;;;;;1.90;1.75;;;;;;;;;;5020511;28;20085;-67
2022/06/18 09:57:38;;;;;;;1.40;1.10;;;;;;;;;;5002746;28;20046;-69
2022/06/18 10:00:13;;;;;;;2.17;1.40;;;;;;;;;;5019186;28;20037;-68
2022/06/18 10:06:52;;;;;;;1.92;1.30;;;;;;;;;;5056188;22;20045;-70
2022/06/18 10:08:50;;;;;;;3.58;1.60;;;;;;;;;;5037328;28;20523;-73
2022/06/18 10:11:22;;;;;;;2.33;1.67;;;;;;;;;;5035055;28;20053;-72
2022/06/18 10:14:00;;;;;;;2.55;1.52;;;;;;;;;;5022675;28;20098;-72
2022/06/18 10:16:53;;;;;;;1.80;1.70;;;;;;;;;;5023427;28;20050;-72
2022/06/18 10:19:30;;;;;;;2.63;1.10;;;;;;;;;;5037483;28;20077;-71
2022/06/18 10:22:01;;;;;;;3.75;1.35;;;;;;;;;;5039623;28;20102;-74
2022/06/18 10:24:38;;;;;;;1.77;1.30;;;;;;;;;;5016320;28;20119;-70
2022/06/18 10:27:19;;;;;;;3.47;1.38;;;;;;;;;;5031100;28;20050;-68
2022/06/18 10:30:06;;;;;;;4.20;1.40;;;;;;;;;;5029840;28;20049;-68
2022/06/18 10:33:05;;;;;;;2.55;1.00;;;;;;;;;;5030715;28;20737;-67
2022/06/18 10:36:06;;;;;;;2.15;1.25;;;;;;;;;;5030953;28;20081;-67
2022/06/18 10:39:11;;;;;;;2.28;1.10;;;;;;;;;;5031191;28;20053;-66
2022/06/18 10:41:46;;;;;;;1.98;1.00;;;;;;;;;;5031878;28;20092;-67
2022/06/18 10:44:25;;;;;;;1.88;1.05;;;;;;;;;;5014736;28;20049;-67
2022/06/18 10:47:05;;;;;;;1.05;1.02;;;;;;;;;;5048894;28;20099;-68
2022/06/18 10:49:32;;;;;;;2.13;1.08;;;;;;;;;;5051822;28;20044;-67
2022/06/18 10:52:00;;;;;;;1.20;0.80;;;;;;;;;;5050338;28;20052;-66
2022/06/18 10:54:34;;;;;;;1.73;0.90;;;;;;;;;;5051541;28;20057;-68
2022/06/18 10:57:01;;;;;;;4.15;1.00;;;;;;;;;;5050718;28;20053;-67
2022/06/18 10:59:34;;;;;;;2.13;0.90;;;;;;;;;;5050871;28;20052;-67
2022/06/18 11:02:12;;;;;;;5.45;1.30;;;;;;;;;;5030823;28;20056;-67
2022/06/18 11:05:15;;;;;;;2.45;1.00;;;;;;;;;;5016776;28;20049;-67
2022/06/18 11:07:49;;;;;;;1.40;1.00;;;;;;;;;;5028270;28;20049;-66
2022/06/18 11:10:34;;;;;;;1.77;0.88;;;;;;;;;;5014878;28;20492;-66
2022/06/18 11:13:02;;;;;;;2.92;1.00;;;;;;;;;;5031350;28;20471;-66
2022/06/18 11:15:32;;;;;;;1.55;1.08;;;;;;;;;;5031438;28;20562;-67
2022/06/18 11:17:59;;;;;;;1.50;0.90;;;;;;;;;;5041336;28;20475;-67
2022/06/18 11:20:28;;;;;;;1.23;0.70;;;;;;;;;;5034238;28;20049;-66
2022/06/18 11:23:03;;;;;;;2.38;0.80;;;;;;;;;;5036916;28;20045;-66
2022/06/18 11:25:36;;;;;;;0.88;0.70;;;;;;;;;;5040000;28;20161;-67
2022/06/18 11:28:25;;;;;;;2.17;0.70;;;;;;;;;;5037740;28;20080;-67
2022/06/18 11:30:52;;;;;;;1.30;0.70;;;;;;;;;;5039672;28;20452;-67
2022/06/18 11:33:29;;;;;;;2.75;0.80;;;;;;;;;;5041059;28;20057;-67
2022/06/18 11:35:56;;;;;;;1.35;1.00;;;;;;;;;;5043149;28;20041;-68
2022/06/18 11:38:28;;;;;;;0.50;0.50;;;;;;;;;;5040743;28;20049;-66
2022/06/18 11:40:58;;;;;;;4.68;0.90;;;;;;;;;;5044899;28;20048;-67
2022/06/18 11:43:57;;;;;;;2.75;0.90;;;;;;;;;;5041697;28;20048;-67
2022/06/18 11:46:30;;;;;;;1.13;0.80;;;;;;;;;;5024203;28;20418;-66
2022/06/18 11:49:04;;;;;;;4.60;0.93;;;;;;;;;;5047647;28;20074;-66
2022/06/18 11:51:41;;;;;;;2.42;1.00;;;;;;;;;;5040613;28;20111;-66
2022/06/18 11:54:39;;;;;;;3.28;1.02;;;;;;;;;;5022512;28;20049;-66
2022/06/18 11:57:25;;;;;;;2.25;1.00;;;;;;;;;;5040033;28;20115;-66
2022/06/18 12:00:20;;;;;;;4.13;1.13;;;;;;;;;;5045914;28;20041;-66
2022/06/18 12:03:14;;;;;;;0.70;0.70;;;;;;;;;;5042037;28;20048;-66
2022/06/18 12:05:49;;;;;;;4.20;1.23;;;;;;;;;;5053422;28;20056;-66
2022/06/18 12:08:19;;;;;;;2.80;1.13;;;;;;;;;;5053396;28;20044;-66
2022/06/18 12:10:56;;;;;;;1.02;0.90;;;;;;;;;;5052622;28;20042;-66
2022/06/18 12:13:38;;;;;;;2.90;1.10;;;;;;;;;;5031904;28;20491;-66
2022/06/18 12:16:20;;;;;;;5.05;1.25;;;;;;;;;;5047562;28;20489;-66
2022/06/18 12:18:50;;;;;;;;;;;;;;;;;;5047523;28;20049;-66
2022/06/18 12:22:01;;;;;;;7.97;2.33;;;;;;;;;;5053748;28;19966;-66
2022/06/18 12:24:53;;;;;;;4.82;1.90;;;;;;;;;;4956948;28;20058;-68
2022/06/18 12:27:24;;;;;;;5.57;1.50;;;;;;;;;;5039473;28;20049;-65
2022/06/18 12:30:16;;;;;;;6.40;1.90;;;;;;;;;;5046127;28;20118;-65
2022/06/18 12:33:06;;;;;;;8.13;2.50;;;;;;;;;;5042961;28;20052;-66
2022/06/18 12:35:52;;;;;;;5.30;2.03;;;;;;;;;;5040662;28;20114;-66
2022/06/18 12:38:24;;;;;;;6.07;1.90;;;;;;;;;;5044556;28;20057;-67
2022/06/18 12:41:02;;;;;;;9.27;2.00;;;;;;;;;;5038655;28;20129;-66
2022/06/18 12:43:50;;;;;;;5.50;1.45;;;;;;;;;;5027973;28;20071;-66
2022/06/18 12:46:27;;;;;;;8.65;1.88;;;;;;;;;;5045284;28;20059;-66
2022/06/18 12:49:24;;;;;;;13.15;2.40;;;;;;;;;;5045347;28;20057;-66
2022/06/18 12:51:56;;;;;;;11.18;2.42;;;;;;;;;;5042298;28;20053;-66
2022/06/18 12:54:23;;;;;;;7.68;2.22;;;;;;;;;;5045393;28;20107;-66
2022/06/18 12:57:11;;;;;;;7.65;1.80;;;;;;;;;;5040979;28;20049;-66
2022/06/18 12:59:48;;;;;;;11.15;2.30;;;;;;;;;;5043817;28;20041;-66
2022/06/18 13:02:30;;;;;;;8.23;2.67;;;;;;;;;;5037676;28;20497;-66
2022/06/18 13:05:22;;;;;;;8.38;3.00;;;;;;;;;;5046436;28;20056;-66
2022/06/18 13:08:09;;;;;;;9.52;2.58;;;;;;;;;;5042340;28;20045;-66
2022/06/18 13:10:45;;;;;;;13.68;2.55;;;;;;;;;;5043180;28;20041;-67
2022/06/18 13:13:27;;;;;;;10.52;2.55;;;;;;;;;;5040331;28;20550;-66
2022/06/18 13:16:12;;;;;;;7.35;3.25;;;;;;;;;;5040959;28;20500;-67
2022/06/18 13:18:46;;;;;;;10.45;2.53;;;;;;;;;;5038925;28;20053;-66
2022/06/18 13:21:13;;;;;;;9.02;2.35;;;;;;;;;;5039322;28;20045;-66
2022/06/18 13:29:36;;;;;;;8.40;2.25;;;;;;;;;;5041580;28;20436;-66
2022/06/18 13:32:22;;;;;;;8.63;2.50;;;;;;;;;;5040396;28;20140;-67
2022/06/18 13:35:13;;;;;;;9.32;2.38;;;;;;;;;;5039240;28;20049;-66
2022/06/18 13:38:02;;;;;;;8.73;2.53;;;;;;;;;;5026373;28;20049;-65
2022/06/18 13:40:37;;;;;;;5.95;2.00;;;;;;;;;;5041457;28;20051;-64
2022/06/18 13:43:09;;;;;;;6.00;2.20;;;;;;;;;;5038884;28;20053;-64
2022/06/18 13:46:10;;;;;;;9.13;2.60;;;;;;;;;;5038015;28;20052;-64
2022/06/18 13:48:46;;;;;;;11.25;2.90;;;;;;;;;;5036848;28;20053;-65
2022/06/18 13:51:24;;;;;;;7.45;2.50;;;;;;;;;;5044796;28;20049;-64
2022/06/18 13:53:50;;;;;;;11.27;2.80;;;;;;;;;;5038613;28;20045;-64
2022/06/18 13:56:20;;;;;;;6.35;2.50;;;;;;;;;;5040447;28;20103;-64
2022/06/18 13:58:59;;;;;;;9.88;2.67;;;;;;;;;;5039764;28;20518;-65
2022/06/18 14:01:27;;;;;;;7.45;2.95;;;;;;;;;;5037388;28;20045;-65
2022/06/18 14:04:05;;;;;;;9.55;2.45;;;;;;;;;;5036569;28;20521;-65
2022/06/18 14:06:32;;;;;;;6.82;2.70;;;;;;;;;;5041657;28;20057;-64
2022/06/18 14:09:06;;;;;;;12.02;2.75;;;;;;;;;;5039738;28;20463;-65
2022/06/18 14:11:36;;;;;;;4.50;2.50;;;;;;;;;;5039486;28;20095;-66
2022/06/18 14:14:09;;;;;;;9.50;2.47;;;;;;;;;;5042187;28;20056;-66
2022/06/18 14:16:40;;;;;;;9.18;2.47;;;;;;;;;;5036239;28;20496;-66
2022/06/18 14:19:29;;;;;;;7.45;2.38;;;;;;;;;;5039372;28;20507;-67
2022/06/18 14:22:02;;;;;;;7.35;2.40;;;;;;;;;;5040959;28;20048;-66
2022/06/18 14:24:46;;;;;;;8.75;2.53;;;;;;;;;;5037567;28;20095;-67
2022/06/18 14:27:32;;;;;;;8.35;2.30;;;;;;;;;;5040337;28;20049;-66
2022/06/18 14:30:00;;;;;;;12.30;2.80;;;;;;;;;;5039498;28;20106;-66
2022/06/18 14:33:08;;;;;;;12.80;2.60;;;;;;;;;;5044570;28;20114;-66
2022/06/18 14:35:39;;;;;;;12.10;3.53;;;;;;;;;;5038799;28;20049;-66
2022/06/18 14:38:06;;;;;;;5.78;2.97;;;;;;;;;;5050884;28;20056;-67
2022/06/18 14:41:34;;;;;;;10.55;2.67;;;;;;;;;;5034347;28;20045;-66
2022/06/18 14:43:45;;;;;;;11.40;2.47;;;;;;;;;;5050473;28;20442;-67
2022/06/18 14:46:19;;;;;;;5.50;2.63;;;;;;;;;;5052222;28;20048;-66
2022/06/18 14:48:55;;;;;;;12.48;2.55;;;;;;;;;;5051123;28;20057;-67
2022/06/18 14:51:43;;;;;;;12.40;3.28;;;;;;;;;;5051799;28;20496;-67
2022/06/18 14:54:29;;;;;;;9.98;2.58;;;;;;;;;;5051776;28;20427;-66
2022/06/18 14:57:08;;;;;;;8.10;2.53;;;;;;;;;;5051902;28;20546;-67
2022/06/18 15:00:13;;;;;;;9.13;2.65;;;;;;;;;;5051854;28;20080;-65
2022/06/18 15:02:44;;;;;;;13.13;2.92;;;;;;;;;;5044365;28;20119;-66
2022/06/18 15:05:26;;;;;;;11.07;2.95;;;;;;;;;;5050772;28;20055;-66
2022/06/18 15:07:52;;;;;;;11.60;2.75;;;;;;;;;;5050845;28;20049;-67
2022/06/18 15:10:27;;;;;;;14.52;4.15;;;;;;;;;;5043508;28;20049;-67
2022/06/18 15:12:53;;;;;;;11.68;3.00;;;;;;;;;;5031473;28;20057;-66
2022/06/18 15:15:46;;;;;;;11.98;3.33;;;;;;;;;;5032954;28;20057;-66
2022/06/18 15:26:24;;;;;;;9.70;2.63;;;;;;;;;;5044221;28;20053;-66
2022/06/18 15:28:52;;;;;;;13.57;3.28;;;;;;;;;;5046530;28;20296;-66
2022/06/18 15:31:25;;;;;;;15.68;3.70;;;;;;;;;;5050537;28;20041;-66
2022/06/18 15:33:52;;;;;;;11.85;3.35;;;;;;;;;;5032589;28;20393;-66
2022/06/18 15:36:26;;;;;;;19.17;3.42;;;;;;;;;;5033573;28;20057;-66
2022/06/18 15:39:02;;;;;;;22.73;6.60;;;;;;;;;;5032427;28;20503;-65
2022/06/18 15:41:37;;;;;;;30.17;13.15;;;;;;;;;;5033602;28;20053;-67
2022/06/18 15:44:05;;;;;;;106.53;57.05;;;;;;;;;;5015721;28;20049;-66
2022/06/18 15:46:32;;;;;;;284.70;168.45;;;;;;;;;;5032709;28;20053;-66
2022/06/18 15:49:06;;;;;;;46.45;26.95;;;;;;;;;;5033301;28;20062;-66
2022/06/18 15:51:37;;;;;;;17.42;5.22;;;;;;;;;;5015960;28;20057;-66